sensor_id;sensor_type;location;lat;lon;timestamp;temperature;humidity
2861;DHT22;1438;50.922;6.704;2023-08-30T00:02:18;14.10;99.90
2861;DHT22;1438;50.922;6.704;2023-08-30T00:04:44;14.10;99.90
2861;DHT22;1438;50.922;6.704;2023-08-30T00:07:09;14.20;99.90
2861;DHT22;1438;50.922;6.704;2023-08-30T00:09:36;14.20;99.90
2861;DHT22;1438;50.922;6.704;2023-08-30T00:12:03;14.20;99.90
2861;DHT22;1438;50.922;6.704;2023-08-30T00:14:28;14.20;99.90
2861;DHT22;1438;50.922;6.704;2023-08-30T00:16:54;14.20;99.90
2861;DHT22;1438;50.922;6.704;2023-08-30T00:19:19;14.30;99.90
2861;DHT22;1438;50.922;6.704;2023-08-30T00:21:46;14.30;99.90
2861;DHT22;1438;50.922;6.704;2023-08-30T00:24:11;14.30;99.90
2861;DHT22;1438;50.922;6.704;2023-08-30T00:26:37;14.30;99.90
2861;DHT22;1438;50.922;6.704;2023-08-30T00:29:02;14.30;99.90
2861;DHT22;1438;50.922;6.704;2023-08-30T00:31:28;14.30;99.90
2861;DHT22;1438;50.922;6.704;2023-08-30T00:33:53;14.30;99.90
2861;DHT22;1438;50.922;6.704;2023-08-30T00:36:19;14.30;99.90
2861;DHT22;1438;50.922;6.704;2023-08-30T00:38:45;14.40;99.90
2861;DHT22;1438;50.922;6.704;2023-08-30T00:41:11;14.40;99.90
2861;DHT22;1438;50.922;6.704;2023-08-30T00:43:36;14.30;99.90
2861;DHT22;1438;50.922;6.704;2023-08-30T00:46:02;14.40;99.90
2861;DHT22;1438;50.922;6.704;2023-08-30T00:48:28;14.30;99.90
2861;DHT22;1438;50.922;6.704;2023-08-30T00:50:54;14.30;99.90
2861;DHT22;1438;50.922;6.704;2023-08-30T00:53:20;14.30;99.90
2861;DHT22;1438;50.922;6.704;2023-08-30T00:55:45;14.30;99.90
2861;DHT22;1438;50.922;6.704;2023-08-30T00:58:11;14.20;99.90
2861;DHT22;1438;50.922;6.704;2023-08-30T01:00:37;14.20;99.90
2861;DHT22;1438;50.922;6.704;2023-08-30T01:03:06;14.10;99.90
2861;DHT22;1438;50.922;6.704;2023-08-30T01:05:32;14.10;99.90
2861;DHT22;1438;50.922;6.704;2023-08-30T01:07:58;14.00;99.90
2861;DHT22;1438;50.922;6.704;2023-08-30T01:10:41;14.00;99.90
2861;DHT22;1438;50.922;6.704;2023-08-30T01:13:09;13.90;99.90
2861;DHT22;1438;50.922;6.704;2023-08-30T01:15:38;13.80;99.90
2861;DHT22;1438;50.922;6.704;2023-08-30T01:18:05;13.70;99.90
2861;DHT22;1438;50.922;6.704;2023-08-30T01:20:35;13.70;99.90
2861;DHT22;1438;50.922;6.704;2023-08-30T01:26:13;13.60;99.90
2861;DHT22;1438;50.922;6.704;2023-08-30T01:28:40;13.50;99.90
2861;DHT22;1438;50.922;6.704;2023-08-30T01:31:08;13.50;99.90
2861;DHT22;1438;50.922;6.704;2023-08-30T01:33:35;13.50;99.90
2861;DHT22;1438;50.922;6.704;2023-08-30T01:36:02;13.40;99.90
2861;DHT22;1438;50.922;6.704;2023-08-30T01:38:29;13.30;99.90
2861;DHT22;1438;50.922;6.704;2023-08-30T01:40:56;13.30;99.90
2861;DHT22;1438;50.922;6.704;2023-08-30T01:43:25;13.30;99.90
2861;DHT22;1438;50.922;6.704;2023-08-30T01:45:52;13.20;99.90
2861;DHT22;1438;50.922;6.704;2023-08-30T01:48:18;13.10;99.90
2861;DHT22;1438;50.922;6.704;2023-08-30T01:50:45;13.10;99.90
2861;DHT22;1438;50.922;6.704;2023-08-30T01:53:12;13.00;99.90
2861;DHT22;1438;50.922;6.704;2023-08-30T01:55:38;13.00;99.90
2861;DHT22;1438;50.922;6.704;2023-08-30T01:58:06;12.90;99.90
2861;DHT22;1438;50.922;6.704;2023-08-30T02:00:32;12.90;99.90
2861;DHT22;1438;50.922;6.704;2023-08-30T02:02:58;12.80;99.90
2861;DHT22;1438;50.922;6.704;2023-08-30T02:05:24;12.80;99.90
2861;DHT22;1438;50.922;6.704;2023-08-30T02:08:11;12.80;99.90
2861;DHT22;1438;50.922;6.704;2023-08-30T02:10:41;12.80;99.90
2861;DHT22;1438;50.922;6.704;2023-08-30T02:13:07;12.80;99.90
2861;DHT22;1438;50.922;6.704;2023-08-30T02:15:34;12.70;99.90
2861;DHT22;1438;50.922;6.704;2023-08-30T02:18:02;12.70;99.90
2861;DHT22;1438;50.922;6.704;2023-08-30T02:20:28;12.60;99.90
2861;DHT22;1438;50.922;6.704;2023-08-30T02:22:58;12.60;99.90
2861;DHT22;1438;50.922;6.704;2023-08-30T02:25:24;12.60;99.90
2861;DHT22;1438;50.922;6.704;2023-08-30T02:27:50;12.60;99.90
2861;DHT22;1438;50.922;6.704;2023-08-30T02:30:15;12.50;99.90
2861;DHT22;1438;50.922;6.704;2023-08-30T02:32:41;12.50;99.90
2861;DHT22;1438;50.922;6.704;2023-08-30T02:35:07;12.50;99.90
2861;DHT22;1438;50.922;6.704;2023-08-30T02:37:32;12.40;99.90
2861;DHT22;1438;50.922;6.704;2023-08-30T02:39:58;12.40;99.90
2861;DHT22;1438;50.922;6.704;2023-08-30T02:42:23;12.30;99.90
2861;DHT22;1438;50.922;6.704;2023-08-30T02:44:51;12.20;99.90
2861;DHT22;1438;50.922;6.704;2023-08-30T02:47:17;12.20;99.90
2861;DHT22;1438;50.922;6.704;2023-08-30T02:49:42;12.20;99.90
2861;DHT22;1438;50.922;6.704;2023-08-30T02:52:08;12.10;99.90
2861;DHT22;1438;50.922;6.704;2023-08-30T02:54:34;12.10;99.90
2861;DHT22;1438;50.922;6.704;2023-08-30T02:57:00;12.10;99.90
2861;DHT22;1438;50.922;6.704;2023-08-30T02:59:25;12.00;99.90
2861;DHT22;1438;50.922;6.704;2023-08-30T03:01:51;12.00;99.90
2861;DHT22;1438;50.922;6.704;2023-08-30T03:04:16;11.90;99.90
2861;DHT22;1438;50.922;6.704;2023-08-30T03:06:43;11.90;99.90
2861;DHT22;1438;50.922;6.704;2023-08-30T03:09:08;11.90;99.90
2861;DHT22;1438;50.922;6.704;2023-08-30T03:11:34;11.90;99.90
2861;DHT22;1438;50.922;6.704;2023-08-30T03:13:59;11.90;99.90
2861;DHT22;1438;50.922;6.704;2023-08-30T03:16:25;11.90;99.90
2861;DHT22;1438;50.922;6.704;2023-08-30T03:18:51;11.90;99.90
2861;DHT22;1438;50.922;6.704;2023-08-30T03:21:16;11.80;99.90
2861;DHT22;1438;50.922;6.704;2023-08-30T03:23:42;11.80;99.90
2861;DHT22;1438;50.922;6.704;2023-08-30T03:26:12;11.80;99.90
2861;DHT22;1438;50.922;6.704;2023-08-30T03:28:38;11.80;99.90
2861;DHT22;1438;50.922;6.704;2023-08-30T03:31:18;11.80;99.90
2861;DHT22;1438;50.922;6.704;2023-08-30T03:33:44;11.70;99.90
2861;DHT22;1438;50.922;6.704;2023-08-30T03:36:11;11.70;99.90
2861;DHT22;1438;50.922;6.704;2023-08-30T03:38:37;11.60;99.90
2861;DHT22;1438;50.922;6.704;2023-08-30T03:41:03;11.60;99.90
2861;DHT22;1438;50.922;6.704;2023-08-30T03:43:30;11.60;99.90
2861;DHT22;1438;50.922;6.704;2023-08-30T03:45:55;11.60;99.90
2861;DHT22;1438;50.922;6.704;2023-08-30T03:48:21;11.60;99.90
2861;DHT22;1438;50.922;6.704;2023-08-30T03:50:47;11.60;99.90
2861;DHT22;1438;50.922;6.704;2023-08-30T03:53:12;11.50;99.90
2861;DHT22;1438;50.922;6.704;2023-08-30T03:55:38;11.50;99.90
2861;DHT22;1438;50.922;6.704;2023-08-30T03:58:04;11.50;99.90
2861;DHT22;1438;50.922;6.704;2023-08-30T04:00:29;11.60;99.90
2861;DHT22;1438;50.922;6.704;2023-08-30T04:02:55;11.50;99.90
2861;DHT22;1438;50.922;6.704;2023-08-30T04:05:20;11.40;99.90
2861;DHT22;1438;50.922;6.704;2023-08-30T04:07:46;11.40;99.90
2861;DHT22;1438;50.922;6.704;2023-08-30T04:10:11;11.40;99.90
2861;DHT22;1438;50.922;6.704;2023-08-30T04:12:37;11.40;99.90
2861;DHT22;1438;50.922;6.704;2023-08-30T04:15:02;11.40;99.90
2861;DHT22;1438;50.922;6.704;2023-08-30T04:17:28;11.40;99.90
2861;DHT22;1438;50.922;6.704;2023-08-30T04:19:54;11.40;99.90
2861;DHT22;1438;50.922;6.704;2023-08-30T04:22:20;11.40;99.90
2861;DHT22;1438;50.922;6.704;2023-08-30T04:24:46;11.40;99.90
2861;DHT22;1438;50.922;6.704;2023-08-30T04:27:12;11.40;99.90
2861;DHT22;1438;50.922;6.704;2023-08-30T04:29:37;11.40;99.90
2861;DHT22;1438;50.922;6.704;2023-08-30T04:32:03;11.40;99.90
2861;DHT22;1438;50.922;6.704;2023-08-30T04:34:29;11.40;99.90
2861;DHT22;1438;50.922;6.704;2023-08-30T04:36:56;11.40;99.90
2861;DHT22;1438;50.922;6.704;2023-08-30T04:39:21;11.40;99.90
2861;DHT22;1438;50.922;6.704;2023-08-30T04:41:47;11.40;99.90
2861;DHT22;1438;50.922;6.704;2023-08-30T04:44:12;11.40;99.90
2861;DHT22;1438;50.922;6.704;2023-08-30T04:46:38;11.30;99.90
2861;DHT22;1438;50.922;6.704;2023-08-30T04:49:03;11.30;99.90
2861;DHT22;1438;50.922;6.704;2023-08-30T04:51:29;11.30;99.90
2861;DHT22;1438;50.922;6.704;2023-08-30T04:53:55;11.40;99.90
2861;DHT22;1438;50.922;6.704;2023-08-30T04:56:20;11.40;99.90
2861;DHT22;1438;50.922;6.704;2023-08-30T04:58:46;11.40;99.90
2861;DHT22;1438;50.922;6.704;2023-08-30T05:01:12;11.40;99.90
2861;DHT22;1438;50.922;6.704;2023-08-30T05:03:39;11.40;99.90
2861;DHT22;1438;50.922;6.704;2023-08-30T05:06:05;11.50;99.90
2861;DHT22;1438;50.922;6.704;2023-08-30T05:08:31;11.60;99.90
2861;DHT22;1438;50.922;6.704;2023-08-30T05:10:56;11.60;99.90
2861;DHT22;1438;50.922;6.704;2023-08-30T05:13:22;11.60;99.90
2861;DHT22;1438;50.922;6.704;2023-08-30T05:15:48;11.60;99.90
2861;DHT22;1438;50.922;6.704;2023-08-30T05:18:13;11.60;99.90
2861;DHT22;1438;50.922;6.704;2023-08-30T05:20:39;11.70;99.90
2861;DHT22;1438;50.922;6.704;2023-08-30T05:23:04;11.70;99.90
2861;DHT22;1438;50.922;6.704;2023-08-30T05:25:30;11.70;99.90
2861;DHT22;1438;50.922;6.704;2023-08-30T05:27:55;11.70;99.90
2861;DHT22;1438;50.922;6.704;2023-08-30T05:30:21;11.70;99.90
2861;DHT22;1438;50.922;6.704;2023-08-30T05:32:47;11.70;99.90
2861;DHT22;1438;50.922;6.704;2023-08-30T05:35:12;11.80;99.90
2861;DHT22;1438;50.922;6.704;2023-08-30T05:37:38;11.80;99.90
2861;DHT22;1438;50.922;6.704;2023-08-30T05:40:04;11.80;99.90
2861;DHT22;1438;50.922;6.704;2023-08-30T05:42:29;11.80;99.90
2861;DHT22;1438;50.922;6.704;2023-08-30T05:44:55;11.90;99.90
2861;DHT22;1438;50.922;6.704;2023-08-30T05:47:21;11.90;99.90
2861;DHT22;1438;50.922;6.704;2023-08-30T05:49:46;11.90;99.90
2861;DHT22;1438;50.922;6.704;2023-08-30T05:52:12;12.00;99.90
2861;DHT22;1438;50.922;6.704;2023-08-30T05:54:38;12.00;99.90
2861;DHT22;1438;50.922;6.704;2023-08-30T05:57:03;12.00;99.90
2861;DHT22;1438;50.922;6.704;2023-08-30T05:59:29;12.10;99.90
2861;DHT22;1438;50.922;6.704;2023-08-30T06:01:55;12.20;99.90
2861;DHT22;1438;50.922;6.704;2023-08-30T06:04:20;12.20;99.90
2861;DHT22;1438;50.922;6.704;2023-08-30T06:06:46;12.30;99.90
2861;DHT22;1438;50.922;6.704;2023-08-30T06:09:11;12.40;99.90
2861;DHT22;1438;50.922;6.704;2023-08-30T06:11:38;12.50;99.90
2861;DHT22;1438;50.922;6.704;2023-08-30T06:14:04;12.50;99.90
2861;DHT22;1438;50.922;6.704;2023-08-30T06:16:30;12.70;99.90
2861;DHT22;1438;50.922;6.704;2023-08-30T06:18:56;12.80;99.90
2861;DHT22;1438;50.922;6.704;2023-08-30T06:21:24;12.90;99.90
2861;DHT22;1438;50.922;6.704;2023-08-30T06:23:50;13.00;99.90
2861;DHT22;1438;50.922;6.704;2023-08-30T06:26:15;13.10;99.90
2861;DHT22;1438;50.922;6.704;2023-08-30T06:28:41;13.20;99.90
2861;DHT22;1438;50.922;6.704;2023-08-30T06:31:08;13.30;99.90
2861;DHT22;1438;50.922;6.704;2023-08-30T06:33:33;13.30;99.90
2861;DHT22;1438;50.922;6.704;2023-08-30T06:35:59;13.40;99.90
2861;DHT22;1438;50.922;6.704;2023-08-30T06:38:25;13.40;99.90
2861;DHT22;1438;50.922;6.704;2023-08-30T06:40:50;13.50;99.90
2861;DHT22;1438;50.922;6.704;2023-08-30T06:43:16;13.60;99.90
2861;DHT22;1438;50.922;6.704;2023-08-30T06:45:42;13.60;99.90
2861;DHT22;1438;50.922;6.704;2023-08-30T06:48:08;13.80;99.90
2861;DHT22;1438;50.922;6.704;2023-08-30T06:50:34;13.90;99.90
2861;DHT22;1438;50.922;6.704;2023-08-30T06:53:01;14.00;99.90
2861;DHT22;1438;50.922;6.704;2023-08-30T06:55:27;14.00;99.90
2861;DHT22;1438;50.922;6.704;2023-08-30T06:57:52;14.00;99.90
2861;DHT22;1438;50.922;6.704;2023-08-30T07:00:18;14.10;99.90
2861;DHT22;1438;50.922;6.704;2023-08-30T07:02:44;14.10;99.90
2861;DHT22;1438;50.922;6.704;2023-08-30T07:05:12;14.10;99.90
2861;DHT22;1438;50.922;6.704;2023-08-30T07:07:37;14.20;99.90
2861;DHT22;1438;50.922;6.704;2023-08-30T07:10:03;14.20;99.90
2861;DHT22;1438;50.922;6.704;2023-08-30T07:12:29;14.20;99.90
2861;DHT22;1438;50.922;6.704;2023-08-30T07:14:55;14.30;99.90
2861;DHT22;1438;50.922;6.704;2023-08-30T07:17:21;14.50;99.90
2861;DHT22;1438;50.922;6.704;2023-08-30T07:19:47;14.60;99.90
2861;DHT22;1438;50.922;6.704;2023-08-30T07:22:13;14.60;99.90
2861;DHT22;1438;50.922;6.704;2023-08-30T07:24:38;14.70;99.90
2861;DHT22;1438;50.922;6.704;2023-08-30T07:27:04;14.80;99.90
2861;DHT22;1438;50.922;6.704;2023-08-30T07:29:31;15.00;99.90
2861;DHT22;1438;50.922;6.704;2023-08-30T07:31:56;15.10;99.90
2861;DHT22;1438;50.922;6.704;2023-08-30T07:34:22;15.30;99.90
2861;DHT22;1438;50.922;6.704;2023-08-30T07:36:47;15.50;99.90
2861;DHT22;1438;50.922;6.704;2023-08-30T07:39:13;15.60;99.90
2861;DHT22;1438;50.922;6.704;2023-08-30T07:41:39;15.80;99.90
2861;DHT22;1438;50.922;6.704;2023-08-30T07:44:05;16.00;99.90
2861;DHT22;1438;50.922;6.704;2023-08-30T07:46:30;16.20;99.90
2861;DHT22;1438;50.922;6.704;2023-08-30T07:48:56;16.40;99.90
2861;DHT22;1438;50.922;6.704;2023-08-30T07:51:21;16.60;99.90
2861;DHT22;1438;50.922;6.704;2023-08-30T07:53:47;16.70;99.90
2861;DHT22;1438;50.922;6.704;2023-08-30T07:56:13;16.90;99.90
2861;DHT22;1438;50.922;6.704;2023-08-30T07:58:40;17.20;99.90
2861;DHT22;1438;50.922;6.704;2023-08-30T08:01:06;17.40;99.90
2861;DHT22;1438;50.922;6.704;2023-08-30T08:03:31;17.70;99.90
2861;DHT22;1438;50.922;6.704;2023-08-30T08:05:59;17.90;99.90
2861;DHT22;1438;50.922;6.704;2023-08-30T08:08:25;18.10;99.90
2861;DHT22;1438;50.922;6.704;2023-08-30T08:10:51;18.30;99.90
2861;DHT22;1438;50.922;6.704;2023-08-30T08:13:16;18.40;99.90
2861;DHT22;1438;50.922;6.704;2023-08-30T08:15:42;18.40;99.90
2861;DHT22;1438;50.922;6.704;2023-08-30T08:18:09;18.50;99.90
2861;DHT22;1438;50.922;6.704;2023-08-30T08:20:35;18.40;99.90
2861;DHT22;1438;50.922;6.704;2023-08-30T08:23:02;18.60;99.90
2861;DHT22;1438;50.922;6.704;2023-08-30T08:25:28;18.70;99.90
2861;DHT22;1438;50.922;6.704;2023-08-30T08:27:54;19.20;99.90
2861;DHT22;1438;50.922;6.704;2023-08-30T08:30:20;19.20;99.90
2861;DHT22;1438;50.922;6.704;2023-08-30T08:32:48;19.40;99.90
2861;DHT22;1438;50.922;6.704;2023-08-30T08:35:14;19.40;99.90
2861;DHT22;1438;50.922;6.704;2023-08-30T08:37:40;19.40;99.90
2861;DHT22;1438;50.922;6.704;2023-08-30T08:40:06;19.50;99.90
2861;DHT22;1438;50.922;6.704;2023-08-30T08:42:34;19.50;99.90
2861;DHT22;1438;50.922;6.704;2023-08-30T08:45:02;19.60;99.90
2861;DHT22;1438;50.922;6.704;2023-08-30T08:47:30;19.60;99.90
2861;DHT22;1438;50.922;6.704;2023-08-30T08:49:56;19.60;99.90
2861;DHT22;1438;50.922;6.704;2023-08-30T08:52:23;19.50;99.90
2861;DHT22;1438;50.922;6.704;2023-08-30T08:54:49;19.30;99.90
2861;DHT22;1438;50.922;6.704;2023-08-30T08:57:15;19.20;99.90
2861;DHT22;1438;50.922;6.704;2023-08-30T08:59:40;19.30;99.90
2861;DHT22;1438;50.922;6.704;2023-08-30T09:02:07;19.40;99.90
2861;DHT22;1438;50.922;6.704;2023-08-30T09:04:35;19.30;99.90
2861;DHT22;1438;50.922;6.704;2023-08-30T09:07:01;19.30;99.90
2861;DHT22;1438;50.922;6.704;2023-08-30T09:09:27;19.40;99.90
2861;DHT22;1438;50.922;6.704;2023-08-30T09:11:53;19.60;99.90
2861;DHT22;1438;50.922;6.704;2023-08-30T09:14:19;19.60;99.90
2861;DHT22;1438;50.922;6.704;2023-08-30T09:17:02;19.60;99.90
2861;DHT22;1438;50.922;6.704;2023-08-30T09:19:28;19.70;99.90
2861;DHT22;1438;50.922;6.704;2023-08-30T09:21:54;19.60;99.90
2861;DHT22;1438;50.922;6.704;2023-08-30T09:24:20;19.50;99.90
2861;DHT22;1438;50.922;6.704;2023-08-30T09:26:52;19.50;99.90
2861;DHT22;1438;50.922;6.704;2023-08-30T09:29:19;19.40;99.90
2861;DHT22;1438;50.922;6.704;2023-08-30T09:31:46;19.40;99.90
2861;DHT22;1438;50.922;6.704;2023-08-30T09:34:12;19.30;99.90
2861;DHT22;1438;50.922;6.704;2023-08-30T09:36:39;19.40;99.90
2861;DHT22;1438;50.922;6.704;2023-08-30T09:39:09;19.40;99.90
2861;DHT22;1438;50.922;6.704;2023-08-30T09:41:36;19.50;99.90
2861;DHT22;1438;50.922;6.704;2023-08-30T09:44:18;19.40;99.90
2861;DHT22;1438;50.922;6.704;2023-08-30T09:46:45;19.40;99.90
2861;DHT22;1438;50.922;6.704;2023-08-30T09:49:12;19.30;99.90
2861;DHT22;1438;50.922;6.704;2023-08-30T09:51:40;19.30;99.90
2861;DHT22;1438;50.922;6.704;2023-08-30T09:54:23;19.20;99.90
2861;DHT22;1438;50.922;6.704;2023-08-30T09:56:49;19.20;99.90
2861;DHT22;1438;50.922;6.704;2023-08-30T09:59:18;19.30;99.90
2861;DHT22;1438;50.922;6.704;2023-08-30T10:01:47;19.30;99.90
2861;DHT22;1438;50.922;6.704;2023-08-30T10:04:19;19.30;99.90
2861;DHT22;1438;50.922;6.704;2023-08-30T10:06:45;19.30;99.90
2861;DHT22;1438;50.922;6.704;2023-08-30T10:09:12;19.20;99.90
2861;DHT22;1438;50.922;6.704;2023-08-30T10:11:38;19.30;99.90
2861;DHT22;1438;50.922;6.704;2023-08-30T10:14:05;19.30;99.90
2861;DHT22;1438;50.922;6.704;2023-08-30T10:19:30;19.40;99.90
2861;DHT22;1438;50.922;6.704;2023-08-30T10:22:01;19.30;99.90
2861;DHT22;1438;50.922;6.704;2023-08-30T10:24:35;19.30;99.90
2861;DHT22;1438;50.922;6.704;2023-08-30T10:27:04;19.30;99.90
2861;DHT22;1438;50.922;6.704;2023-08-30T10:29:32;19.20;99.90
2861;DHT22;1438;50.922;6.704;2023-08-30T10:32:03;19.20;99.90
2861;DHT22;1438;50.922;6.704;2023-08-30T10:34:35;19.00;99.90
2861;DHT22;1438;50.922;6.704;2023-08-30T10:37:02;19.00;99.90
2861;DHT22;1438;50.922;6.704;2023-08-30T10:39:36;18.90;99.90
2861;DHT22;1438;50.922;6.704;2023-08-30T10:42:12;18.90;99.90
2861;DHT22;1438;50.922;6.704;2023-08-30T10:47:22;17.40;99.90
2861;DHT22;1438;50.922;6.704;2023-08-30T10:49:47;17.00;99.90
2861;DHT22;1438;50.922;6.704;2023-08-30T10:52:14;16.30;99.90
2861;DHT22;1438;50.922;6.704;2023-08-30T10:54:39;15.90;99.90
2861;DHT22;1438;50.922;6.704;2023-08-30T10:57:05;15.40;99.90
2861;DHT22;1438;50.922;6.704;2023-08-30T10:59:31;15.10;99.90
2861;DHT22;1438;50.922;6.704;2023-08-30T11:01:56;14.80;99.90
2861;DHT22;1438;50.922;6.704;2023-08-30T11:04:26;14.70;99.90
2861;DHT22;1438;50.922;6.704;2023-08-30T11:06:51;14.80;99.90
2861;DHT22;1438;50.922;6.704;2023-08-30T11:09:19;14.80;99.90
2861;DHT22;1438;50.922;6.704;2023-08-30T11:11:45;14.80;99.90
2861;DHT22;1438;50.922;6.704;2023-08-30T11:14:11;14.90;99.90
2861;DHT22;1438;50.922;6.704;2023-08-30T11:16:37;14.90;99.90
2861;DHT22;1438;50.922;6.704;2023-08-30T11:19:04;15.00;99.90
2861;DHT22;1438;50.922;6.704;2023-08-30T11:21:36;15.10;99.90
2861;DHT22;1438;50.922;6.704;2023-08-30T11:24:03;15.10;99.90
2861;DHT22;1438;50.922;6.704;2023-08-30T11:26:29;15.20;99.90
2861;DHT22;1438;50.922;6.704;2023-08-30T11:28:55;15.20;99.90
2861;DHT22;1438;50.922;6.704;2023-08-30T11:31:25;15.20;99.90
2861;DHT22;1438;50.922;6.704;2023-08-30T11:33:56;15.20;99.90
2861;DHT22;1438;50.922;6.704;2023-08-30T11:36:23;15.30;99.90
2861;DHT22;1438;50.922;6.704;2023-08-30T11:38:51;15.20;99.90
2861;DHT22;1438;50.922;6.704;2023-08-30T11:41:17;15.20;99.90
2861;DHT22;1438;50.922;6.704;2023-08-30T11:43:43;15.10;99.90
2861;DHT22;1438;50.922;6.704;2023-08-30T11:46:09;15.20;99.90
2861;DHT22;1438;50.922;6.704;2023-08-30T11:48:35;15.30;99.90
2861;DHT22;1438;50.922;6.704;2023-08-30T11:51:01;15.30;99.90
2861;DHT22;1438;50.922;6.704;2023-08-30T11:53:27;15.30;99.90
2861;DHT22;1438;50.922;6.704;2023-08-30T11:55:53;15.30;99.90
2861;DHT22;1438;50.922;6.704;2023-08-30T11:58:19;15.40;99.90
2861;DHT22;1438;50.922;6.704;2023-08-30T12:00:45;15.40;99.90
2861;DHT22;1438;50.922;6.704;2023-08-30T12:03:14;15.40;99.90
2861;DHT22;1438;50.922;6.704;2023-08-30T12:05:47;15.40;99.90
2861;DHT22;1438;50.922;6.704;2023-08-30T12:08:20;15.40;99.90
2861;DHT22;1438;50.922;6.704;2023-08-30T12:10:47;15.40;99.90
2861;DHT22;1438;50.922;6.704;2023-08-30T12:13:22;15.40;99.90
2861;DHT22;1438;50.922;6.704;2023-08-30T12:15:48;15.30;99.90
2861;DHT22;1438;50.922;6.704;2023-08-30T12:18:13;15.30;99.90
2861;DHT22;1438;50.922;6.704;2023-08-30T12:20:39;15.20;99.90
2861;DHT22;1438;50.922;6.704;2023-08-30T12:23:05;15.10;99.90
2861;DHT22;1438;50.922;6.704;2023-08-30T12:25:30;15.10;99.90
2861;DHT22;1438;50.922;6.704;2023-08-30T12:27:57;15.10;99.90
2861;DHT22;1438;50.922;6.704;2023-08-30T12:30:23;15.00;99.90
2861;DHT22;1438;50.922;6.704;2023-08-30T12:32:48;15.00;99.90
2861;DHT22;1438;50.922;6.704;2023-08-30T12:35:14;15.10;99.90
2861;DHT22;1438;50.922;6.704;2023-08-30T12:37:40;15.10;99.90
2861;DHT22;1438;50.922;6.704;2023-08-30T12:40:06;15.10;99.90
2861;DHT22;1438;50.922;6.704;2023-08-30T12:42:32;15.10;99.90
2861;DHT22;1438;50.922;6.704;2023-08-30T12:44:58;15.10;99.90
2861;DHT22;1438;50.922;6.704;2023-08-30T12:47:24;15.20;99.90
2861;DHT22;1438;50.922;6.704;2023-08-30T12:49:50;15.30;99.90
2861;DHT22;1438;50.922;6.704;2023-08-30T12:52:15;15.30;99.90
2861;DHT22;1438;50.922;6.704;2023-08-30T12:54:41;15.30;99.90
2861;DHT22;1438;50.922;6.704;2023-08-30T12:57:07;15.30;99.90
2861;DHT22;1438;50.922;6.704;2023-08-30T12:59:33;15.30;99.90
2861;DHT22;1438;50.922;6.704;2023-08-30T13:01:58;15.40;99.90
2861;DHT22;1438;50.922;6.704;2023-08-30T13:04:24;15.40;99.90
2861;DHT22;1438;50.922;6.704;2023-08-30T13:06:49;15.40;99.90
2861;DHT22;1438;50.922;6.704;2023-08-30T13:09:16;15.40;99.90
2861;DHT22;1438;50.922;6.704;2023-08-30T13:11:42;15.40;99.90
2861;DHT22;1438;50.922;6.704;2023-08-30T13:14:07;15.30;99.90
2861;DHT22;1438;50.922;6.704;2023-08-30T13:16:33;15.20;99.90
2861;DHT22;1438;50.922;6.704;2023-08-30T13:18:58;15.20;99.90
2861;DHT22;1438;50.922;6.704;2023-08-30T13:21:24;15.30;99.90
2861;DHT22;1438;50.922;6.704;2023-08-30T13:23:49;15.30;99.90
2861;DHT22;1438;50.922;6.704;2023-08-30T13:26:15;15.40;99.90
2861;DHT22;1438;50.922;6.704;2023-08-30T13:28:41;15.30;99.90
2861;DHT22;1438;50.922;6.704;2023-08-30T13:31:09;15.30;99.90
2861;DHT22;1438;50.922;6.704;2023-08-30T13:33:35;15.40;99.90
2861;DHT22;1438;50.922;6.704;2023-08-30T13:36:00;15.30;99.90
2861;DHT22;1438;50.922;6.704;2023-08-30T13:38:27;15.40;99.90
2861;DHT22;1438;50.922;6.704;2023-08-30T13:40:58;15.40;99.90
2861;DHT22;1438;50.922;6.704;2023-08-30T13:43:25;15.50;99.90
2861;DHT22;1438;50.922;6.704;2023-08-30T13:45:57;15.50;99.90
2861;DHT22;1438;50.922;6.704;2023-08-30T13:48:23;15.40;99.90
2861;DHT22;1438;50.922;6.704;2023-08-30T13:50:50;15.40;99.90
2861;DHT22;1438;50.922;6.704;2023-08-30T13:53:15;15.20;99.90
2861;DHT22;1438;50.922;6.704;2023-08-30T13:55:45;15.10;99.90
2861;DHT22;1438;50.922;6.704;2023-08-30T13:58:11;15.00;99.90
2861;DHT22;1438;50.922;6.704;2023-08-30T14:00:36;15.00;99.90
2861;DHT22;1438;50.922;6.704;2023-08-30T14:03:02;15.00;99.90
2861;DHT22;1438;50.922;6.704;2023-08-30T14:05:28;15.00;99.90
2861;DHT22;1438;50.922;6.704;2023-08-30T14:07:53;15.00;99.90
2861;DHT22;1438;50.922;6.704;2023-08-30T14:10:19;14.90;99.90
2861;DHT22;1438;50.922;6.704;2023-08-30T14:12:45;14.90;99.90
2861;DHT22;1438;50.922;6.704;2023-08-30T14:15:10;14.90;99.90
2861;DHT22;1438;50.922;6.704;2023-08-30T14:17:36;14.80;99.90
2861;DHT22;1438;50.922;6.704;2023-08-30T14:20:02;14.70;99.90
2861;DHT22;1438;50.922;6.704;2023-08-30T14:22:28;14.60;99.90
2861;DHT22;1438;50.922;6.704;2023-08-30T14:24:53;14.50;99.90
2861;DHT22;1438;50.922;6.704;2023-08-30T14:27:19;14.30;99.90
2861;DHT22;1438;50.922;6.704;2023-08-30T14:29:44;14.20;99.90
2861;DHT22;1438;50.922;6.704;2023-08-30T14:32:10;14.20;99.90
2861;DHT22;1438;50.922;6.704;2023-08-30T14:34:35;14.20;99.90
2861;DHT22;1438;50.922;6.704;2023-08-30T14:37:01;14.30;99.90
2861;DHT22;1438;50.922;6.704;2023-08-30T14:39:27;14.30;99.90
2861;DHT22;1438;50.922;6.704;2023-08-30T14:41:52;14.40;99.90
2861;DHT22;1438;50.922;6.704;2023-08-30T14:44:18;14.50;99.90
2861;DHT22;1438;50.922;6.704;2023-08-30T14:46:45;14.50;99.90
2861;DHT22;1438;50.922;6.704;2023-08-30T14:49:11;14.50;99.90
2861;DHT22;1438;50.922;6.704;2023-08-30T14:51:36;14.60;99.90
2861;DHT22;1438;50.922;6.704;2023-08-30T14:54:02;14.70;99.90
2861;DHT22;1438;50.922;6.704;2023-08-30T14:56:27;15.00;99.90
2861;DHT22;1438;50.922;6.704;2023-08-30T14:58:53;15.30;99.90
2861;DHT22;1438;50.922;6.704;2023-08-30T15:01:19;15.60;99.90
2861;DHT22;1438;50.922;6.704;2023-08-30T15:03:44;15.90;99.90
2861;DHT22;1438;50.922;6.704;2023-08-30T15:06:10;16.10;99.90
2861;DHT22;1438;50.922;6.704;2023-08-30T15:08:36;16.30;99.90
2861;DHT22;1438;50.922;6.704;2023-08-30T15:11:01;16.70;99.90
2861;DHT22;1438;50.922;6.704;2023-08-30T15:13:29;17.00;99.90
2861;DHT22;1438;50.922;6.704;2023-08-30T15:15:55;17.60;99.90
2861;DHT22;1438;50.922;6.704;2023-08-30T15:18:20;18.30;99.90
2861;DHT22;1438;50.922;6.704;2023-08-30T15:20:46;18.40;99.90
2861;DHT22;1438;50.922;6.704;2023-08-30T15:23:13;18.50;99.90
2861;DHT22;1438;50.922;6.704;2023-08-30T15:25:45;18.90;99.90
2861;DHT22;1438;50.922;6.704;2023-08-30T15:28:12;18.70;99.90
2861;DHT22;1438;50.922;6.704;2023-08-30T15:30:37;18.50;99.90
2861;DHT22;1438;50.922;6.704;2023-08-30T15:33:05;18.70;99.90
2861;DHT22;1438;50.922;6.704;2023-08-30T15:35:35;18.80;99.90
2861;DHT22;1438;50.922;6.704;2023-08-30T15:38:01;18.90;99.90
2861;DHT22;1438;50.922;6.704;2023-08-30T15:40:26;18.80;99.90
2861;DHT22;1438;50.922;6.704;2023-08-30T15:42:52;18.70;99.90
2861;DHT22;1438;50.922;6.704;2023-08-30T15:45:17;19.40;99.90
2861;DHT22;1438;50.922;6.704;2023-08-30T15:47:43;19.60;99.90
2861;DHT22;1438;50.922;6.704;2023-08-30T15:50:09;19.00;99.90
2861;DHT22;1438;50.922;6.704;2023-08-30T15:52:34;19.10;99.90
2861;DHT22;1438;50.922;6.704;2023-08-30T15:55:00;19.20;99.90
2861;DHT22;1438;50.922;6.704;2023-08-30T15:57:25;19.30;99.90
2861;DHT22;1438;50.922;6.704;2023-08-30T15:59:51;19.40;99.90
2861;DHT22;1438;50.922;6.704;2023-08-30T16:02:17;19.30;99.90
2861;DHT22;1438;50.922;6.704;2023-08-30T16:04:43;19.20;99.90
2861;DHT22;1438;50.922;6.704;2023-08-30T16:07:08;19.20;99.90